»·PEaware :: N313N KSBP-KOKB

N313N :: KSBP-KOKB

FLIGHT INFORMATION

Flight Status: Arrived
Operator: Privately registered:
United States
More flights under this callsign
Pilot: Damien O. (2415)
Aircraft: GULFSTREAM G-1159C GULFSTREAM 4
(GLF4)
More flights by this aircraft type
Origin: KSBP San Luis Co Regl
United States
Destination: KOKB Oceanside Mun
United States
More flights between these airports :: More routes between these airports
Route: RZS VTU V208 SXC V208 OCN
File this flight plan on PilotEdge
Remarks:
Altitude:
(Current/Filed)
11,000ft
Speed:
(Current/Filed)
300kts
Departed: 10-Feb-19 05:06 PM
Arrived: 10-Feb-19 05:49 PM
Distance/Time
Traveled:
166nm/0:43
Distance/Time
To Go:
Arrived

Flight Plot

Page will automatically refresh every two minutes.

Flight plan parsing failed; only flown route is shown


Map Options




Map Legend


Flown Route
Filed Route
Departure Airport
Arrival Airport
Navaid (VOR, NDB)
Fix

Horizontal Profiles

Position Reports

Time Latitude Longitude Heading Altitude Ground
Speed
10-Feb-19 16:56 35.237165 -120.637128 268 220ft 0kts
10-Feb-19 16:57 35.237165 -120.637128 268 220ft 0kts
10-Feb-19 16:58 35.237165 -120.637128 268 220ft 0kts
10-Feb-19 16:59 35.237165 -120.637128 268 220ft 0kts
10-Feb-19 17:00 35.237165 -120.637128 268 220ft 0kts
10-Feb-19 17:01 35.237165 -120.637128 268 220ft 0kts
10-Feb-19 17:02 35.237165 -120.637163 271 220ft 4kts
10-Feb-19 17:03 35.234713 -120.634484 124 220ft 17kts
10-Feb-19 17:04 35.233055 -120.632490 215 220ft 0kts
10-Feb-19 17:05 35.236304 -120.639084 305 221ft 152kts
10-Feb-19 17:06 35.269338 -120.699378 304 2031ft 232kts
10-Feb-19 17:07 35.300990 -120.767226 254 4096ft 240kts
10-Feb-19 17:08 35.252523 -120.768201 132 6680ft 249kts
10-Feb-19 17:09 35.208741 -120.699574 130 7803ft 255kts
10-Feb-19 17:10 35.166065 -120.630016 130 7806ft 255kts
10-Feb-19 17:11 35.128927 -120.569019 130 7812ft 256kts
10-Feb-19 17:12 35.075364 -120.480426 131 10690ft 391kts
10-Feb-19 17:13 35.005386 -120.375791 133 10835ft 387kts
10-Feb-19 17:14 34.938871 -120.277351 133 10831ft 389kts
10-Feb-19 17:15 34.872741 -120.183880 137 10841ft 389kts
10-Feb-19 17:16 34.796175 -120.087254 137 10856ft 390kts
10-Feb-19 17:17 34.721215 -119.992997 137 10863ft 391kts
10-Feb-19 17:18 34.646124 -119.901091 140 10864ft 387kts
10-Feb-19 17:19 34.570014 -119.814206 140 10863ft 384kts
10-Feb-19 17:20 34.498866 -119.722212 124 10874ft 389kts
10-Feb-19 17:21 34.444330 -119.611680 124 10863ft 389kts
10-Feb-19 17:22 34.387599 -119.503792 125 10864ft 388kts
10-Feb-19 17:23 34.326631 -119.393845 125 10871ft 400kts
10-Feb-19 17:24 34.279277 -119.309068 128 10869ft 398kts
10-Feb-19 17:25 34.219430 -119.207923 128 10870ft 399kts
10-Feb-19 17:26 34.162700 -119.111872 128 10873ft 398kts
10-Feb-19 17:27 34.098555 -119.028832 166 10895ft 383kts
10-Feb-19 17:28 34.010757 -119.018411 179 10880ft 377kts
10-Feb-19 17:29 33.921754 -119.011768 179 10881ft 377kts
10-Feb-19 17:30 33.829260 -119.004837 179 10884ft 377kts
10-Feb-19 17:31 33.736440 -118.951628 130 10895ft 397kts
10-Feb-19 17:32 33.668651 -118.843294 129 10892ft 394kts
10-Feb-19 17:33 33.589544 -118.715393 129 10891ft 391kts
10-Feb-19 17:34 33.522396 -118.606318 129 10892ft 391kts
10-Feb-19 17:35 33.457387 -118.500695 129 10892ft 391kts
10-Feb-19 17:36 33.392637 -118.395385 129 10892ft 391kts
10-Feb-19 17:37 33.364894 -118.270589 99 10889ft 400kts
10-Feb-19 17:38 33.350779 -118.138339 99 10891ft 400kts
10-Feb-19 17:39 33.336970 -118.006702 99 10894ft 399kts
10-Feb-19 17:40 33.323794 -117.879074 102 9486ft 359kts
10-Feb-19 17:41 33.309342 -117.774497 102 7552ft 312kts
10-Feb-19 17:42 33.291781 -117.678595 102 5531ft 285kts
10-Feb-19 17:43 33.245985 -117.619076 171 3680ft 255kts
10-Feb-19 17:44 33.213950 -117.560678 101 2385ft 224kts
10-Feb-19 17:45 33.200962 -117.487757 101 1435ft 221kts
10-Feb-19 17:46 33.206655 -117.418677 77 1109ft 186kts
10-Feb-19 17:47 33.215052 -117.369348 78 494ft 142kts
10-Feb-19 17:48 33.219759 -117.344533 169 35ft 11kts
10-Feb-19 17:49 33.218267 -117.347632 254 35ft 10kts
10-Feb-19 17:50 33.217686 -117.350171 254 35ft 0kts
10-Feb-19 17:51 33.217686 -117.350171 254 35ft 0kts
10-Feb-19 17:54 33.672522 -117.867142 208 64ft 0kts
10-Feb-19 17:55 33.672522 -117.867142 208 64ft 0kts
10-Feb-19 17:56 33.672522 -117.867142 208 64ft 0kts
10-Feb-19 17:57 33.672522 -117.867142 208 64ft 0kts
10-Feb-19 17:58 33.672522 -117.867142 208 64ft 0kts
10-Feb-19 17:59 33.672522 -117.867142 208 64ft 0kts
10-Feb-19 18:00 33.672522 -117.867142 208 64ft 0kts
10-Feb-19 18:01 33.672522 -117.867142 208 64ft 0kts
10-Feb-19 18:03 33.672522 -117.867142 208 64ft 0kts

Navigation Log

Ident Type
Flight plan parsing failed, navigation log unavailable